Ladd AAF Airfield
PAFB : now visible

Airfield :











YOU CAN JOIN US ON...

 
LOGIN :

Register | Disclaimer

   EN    FR    IT 

 









Legend :    VFR   Marginal VFR   IFR   Intensive IFR   Very Intensive IFR
Visi :
Ceiling :
>= 8 km
>= 3000ft
5 to 8 km
1000 to 3000 ft
1500m to 5 km
500 to 1000 ft
800 to 1500m
200 to 500 ft
< 800m
< 200 ft
Symbols :   Thunderstorms  Fog  Heavy snow  Heavy precipitations  Wind > 20 kt






- Airport Elevation : 454 ft
- IATA code : FBK


PAFB - Ladd AAF

CURRENT METAR :
  • 271058Z AUTO 00000KT 10SM CLR M32/M35 A2986 RMK AO2 SLP132 T13211350

EXPIRED METARs :
  • 270958Z AUTO 00000KT 10SM CLR M31/M34 A2986 RMK AO2 SLP132 T13131341
  • 270858Z AUTO 00000KT 10SM CLR M30/M33 A2986 RMK AO2 SLP133 T13021330 411541350 52007
  • 270758Z AUTO 00000KT 10SM CLR M28/M31 A2985 RMK AO2 SLP131 T12811306

TAF TAF PAFB
Valid from the 27 at 08:00 until the 28 at 14:00 UTC


270800Z 2708/2814 VRB06KT 9999 SKC QNH2979INS TXM20/2800Z TNM36/2717Z LAST NO AMDS AFT 2708 NEXT 2716



MET'MAP, your aeronautical weather chart ! - Copyright ORBIFLY December 2007 - Disclaimer

ORBIFLY MET'MAP TEAM :

Programming & Development : Alexandra Zaïnal
Concept & original design : Baudouin d'Aumeries
Assistance for programming : Marc-Olivier Méhu
Technical & hardware support : Manuel Goepfert

Contact : metmap@orbifly.com




SOURCES & CREDITS :

   NOAA       Earth
Advisory